Time;durP1;ratioP1;P1;durP2;ratioP2;P2;SDS_P1;SDS_P2;PMS_P1;PMS_P2;Temp;Humidity;BMP_temperature;BMP_pressure;BME280_temperature;BME280_humidity;BME280_pressure;Samples;Min_cycle;Max_cycle;Signal;HPM_P1;HPM_P2
2021/07/25 00:04:49;;;;;;;12.40;11.20;;;21.10;99.90;;;;;;10510033;28;20291;-83
2021/07/25 00:09:51;;;;;;;12.10;11.10;;;21.10;99.90;;;;;;10485930;28;20200;-84
2021/07/25 00:14:55;;;;;;;12.60;11.40;;;21.10;99.90;;;;;;10505090;28;20227;-84
2021/07/25 00:19:57;;;;;;;14.63;13.20;;;21.20;99.90;;;;;;10507875;28;20215;-84
2021/07/25 00:25:07;;;;;;;13.50;12.40;;;21.20;99.90;;;;;;10501936;22;20247;-85
2021/07/25 00:30:13;;;;;;;13.13;11.93;;;21.20;99.90;;;;;;10495419;28;20299;-84
2021/07/25 00:35:17;;;;;;;13.93;12.53;;;21.20;99.90;;;;;;10495145;28;20248;-84
2021/07/25 00:40:28;;;;;;;13.20;12.00;;;21.20;99.90;;;;;;10504711;28;20741;-84
2021/07/25 00:45:32;;;;;;;15.03;12.80;;;21.30;99.90;;;;;;10486905;28;20687;-84
2021/07/25 00:50:34;;;;;;;13.83;12.50;;;21.30;99.90;;;;;;10504000;28;20284;-84
2021/07/25 00:55:37;;;;;;;14.60;11.83;;;21.30;99.90;;;;;;10490039;28;20216;-85
2021/07/25 01:00:41;;;;;;;14.43;11.83;;;21.30;99.90;;;;;;10479056;28;20250;-83
2021/07/25 01:05:49;;;;;;;14.87;11.70;;;21.30;99.90;;;;;;10478773;28;20231;-83
2021/07/25 01:10:53;;;;;;;12.10;11.07;;;21.20;99.90;;;;;;10478017;28;20616;-83
2021/07/25 01:15:58;;;;;;;11.80;10.80;;;21.10;99.90;;;;;;10484110;28;20298;-83
2021/07/25 01:21:01;;;;;;;12.97;11.87;;;21.00;99.90;;;;;;10487448;28;20201;-84
2021/07/25 01:26:04;;;;;;;12.80;11.47;;;20.90;99.90;;;;;;10493680;28;20229;-84
2021/07/25 01:31:14;;;;;;;11.57;10.47;;;20.90;99.90;;;;;;10477071;28;20230;-84
2021/07/25 01:36:18;;;;;;;13.17;11.87;;;20.70;99.90;;;;;;10465732;28;20232;-84
2021/07/25 01:41:20;;;;;;;13.10;11.80;;;20.70;99.90;;;;;;10446319;28;20245;-84
2021/07/25 01:46:22;;;;;;;13.27;12.17;;;20.70;99.90;;;;;;10459083;28;20308;-84
2021/07/25 01:51:26;;;;;;;17.07;13.00;;;20.70;99.90;;;;;;10489161;28;20246;-84
2021/07/25 01:56:29;;;;;;;14.70;13.17;;;20.60;99.90;;;;;;10482242;28;20231;-84
2021/07/25 02:01:31;;;;;;;13.97;12.60;;;20.60;99.90;;;;;;10483235;28;20232;-84
2021/07/25 02:06:37;;;;;;;14.77;13.40;;;20.60;99.90;;;;;;10493567;28;20231;-84
2021/07/25 02:11:39;;;;;;;13.90;12.53;;;20.70;99.90;;;;;;10470806;28;20265;-84
2021/07/25 02:16:41;;;;;;;14.67;13.40;;;20.70;99.90;;;;;;10476611;28;20239;-84
2021/07/25 02:21:44;;;;;;;13.37;12.10;;;20.70;99.90;;;;;;10489327;28;20247;-84
2021/07/25 02:26:47;;;;;;;14.97;13.40;;;20.70;99.90;;;;;;10478076;28;20254;-84
2021/07/25 02:31:49;;;;;;;13.67;12.33;;;20.70;99.90;;;;;;10485007;28;20212;-84
2021/07/25 02:36:53;;;;;;;14.87;13.30;;;20.60;99.90;;;;;;10502262;28;20220;-84
2021/07/25 02:41:55;;;;;;;15.07;13.73;;;20.60;99.90;;;;;;10463006;28;20209;-84
2021/07/25 02:46:57;;;;;;;14.90;11.40;;;20.60;99.90;;;;;;10477064;28;20228;-84
2021/07/25 02:52:02;;;;;;;15.67;12.90;;;20.60;99.90;;;;;;10453073;28;20215;-84
2021/07/25 02:57:04;;;;;;;13.10;11.80;;;20.70;99.90;;;;;;10469148;28;20551;-84
2021/07/25 03:02:06;;;;;;;13.10;11.90;;;20.60;99.90;;;;;;10447577;28;20204;-84
2021/07/25 03:07:10;;;;;;;12.70;11.60;;;20.50;99.90;;;;;;10467119;28;20221;-85
2021/07/25 03:12:12;;;;;;;14.07;12.63;;;20.30;99.90;;;;;;10490542;28;20295;-84
2021/07/25 03:17:14;;;;;;;15.23;13.40;;;20.30;99.90;;;;;;10495927;28;20232;-84
2021/07/25 03:22:18;;;;;;;15.60;12.43;;;20.30;99.90;;;;;;10496731;28;20535;-84
2021/07/25 03:27:20;;;;;;;15.50;14.00;;;20.30;99.90;;;;;;10497013;28;20225;-84
2021/07/25 03:32:22;;;;;;;16.57;14.77;;;20.30;99.90;;;;;;10485169;28;20267;-84
2021/07/25 03:37:25;;;;;;;14.20;12.80;;;20.30;99.90;;;;;;10494412;28;20654;-84
2021/07/25 03:42:27;;;;;;;15.97;12.83;;;20.30;99.90;;;;;;10489219;28;20257;-85
2021/07/25 03:47:30;;;;;;;15.40;13.90;;;20.30;99.90;;;;;;10479177;28;20223;-84
2021/07/25 03:52:35;;;;;;;15.47;13.97;;;20.30;99.90;;;;;;10497746;28;20627;-85
2021/07/25 03:57:37;;;;;;;13.17;11.80;;;20.30;99.90;;;;;;10480687;28;20274;-84
2021/07/25 04:02:39;;;;;;;12.80;11.50;;;20.30;99.90;;;;;;10497321;28;20201;-84
2021/07/25 04:07:42;;;;;;;12.50;11.40;;;20.20;99.90;;;;;;10479271;28;20235;-84
2021/07/25 04:12:44;;;;;;;14.57;12.40;;;20.20;99.90;;;;;;10488457;28;20680;-84
2021/07/25 04:17:46;;;;;;;13.27;11.90;;;20.20;99.90;;;;;;10486856;28;20231;-84
2021/07/25 04:22:50;;;;;;;13.60;12.40;;;20.30;99.90;;;;;;10470655;28;20731;-84
2021/07/25 04:27:53;;;;;;;13.90;12.57;;;20.40;99.90;;;;;;10494473;28;20281;-84
2021/07/25 04:32:56;;;;;;;14.23;13.10;;;20.40;99.90;;;;;;10485233;28;20192;-83
2021/07/25 04:38:00;;;;;;;13.77;12.47;;;20.50;99.90;;;;;;10486060;28;20653;-83
2021/07/25 04:43:05;;;;;;;12.30;11.10;;;20.60;99.90;;;;;;10481134;28;20226;-83
2021/07/25 04:48:19;;;;;;;13.50;12.10;;;20.60;99.90;;;;;;10495729;28;20219;-83
2021/07/25 04:53:26;;;;;;;14.73;12.00;;;20.70;99.90;;;;;;10504949;28;20197;-83
2021/07/25 04:58:32;;;;;;;12.90;11.70;;;20.70;99.90;;;;;;10497130;28;20239;-83
2021/07/25 05:03:34;;;;;;;11.67;10.60;;;20.70;99.90;;;;;;10509875;28;20795;-83
2021/07/25 05:08:39;;;;;;;13.90;12.60;;;20.80;99.90;;;;;;10507182;28;20739;-83
2021/07/25 05:13:45;;;;;;;12.73;11.67;;;20.80;99.90;;;;;;10520570;28;20204;-83
2021/07/25 05:19:02;;;;;;;12.97;10.40;;;20.90;99.90;;;;;;10524513;28;20221;-83
2021/07/25 05:24:08;;;;;;;11.23;10.23;;;20.90;99.90;;;;;;10470135;28;20201;-83
2021/07/25 05:29:12;;;;;;;12.60;11.60;;;21.00;99.90;;;;;;10471185;28;20255;-83
2021/07/25 05:34:15;;;;;;;12.83;11.53;;;21.00;99.90;;;;;;10443135;28;20213;-83
2021/07/25 05:39:18;;;;;;;12.57;11.37;;;21.00;99.90;;;;;;10487198;28;20196;-83
2021/07/25 05:44:20;;;;;;;11.63;10.53;;;21.00;99.90;;;;;;10466752;28;20238;-83
2021/07/25 05:49:22;;;;;;;13.47;12.37;;;21.00;99.90;;;;;;10452940;28;20644;-84
2021/07/25 05:54:29;;;;;;;12.53;11.23;;;21.00;99.90;;;;;;10466770;28;20576;-83
2021/07/25 05:59:31;;;;;;;12.27;10.97;;;21.10;99.90;;;;;;10467386;28;20631;-82
2021/07/25 06:04:33;;;;;;;12.50;11.20;;;21.10;99.90;;;;;;10449086;28;20224;-83
2021/07/25 06:09:37;;;;;;;11.97;10.87;;;21.20;99.90;;;;;;10506256;28;20679;-83
2021/07/25 06:14:39;;;;;;;10.70;9.87;;;21.30;99.90;;;;;;10489753;28;20315;-83
2021/07/25 06:19:41;;;;;;;10.20;9.30;;;21.50;99.90;;;;;;10500383;28;20200;-83
2021/07/25 06:29:49;;;;;;;10.90;9.77;;;21.70;99.90;;;;;;10386398;28;20238;-84
2021/07/25 06:34:51;;;;;;;11.63;9.10;;;21.80;99.90;;;;;;10341266;28;20211;-84
2021/07/25 06:39:53;;;;;;;10.03;9.27;;;21.90;99.90;;;;;;10388418;28;20551;-83
2021/07/25 06:44:56;;;;;;;11.57;10.60;;;21.90;99.90;;;;;;10381901;28;20249;-83
2021/07/25 06:49:58;;;;;;;12.73;11.33;;;22.10;99.90;;;;;;10360903;28;20677;-85
2021/07/25 06:55:00;;;;;;;10.50;9.50;;;22.50;99.90;;;;;;10356285;28;20678;-85
2021/07/25 07:00:04;;;;;;;10.10;9.30;;;22.90;99.90;;;;;;10340371;28;20289;-85
2021/07/25 07:05:07;;;;;;;12.87;8.90;;;23.40;99.90;;;;;;10356804;28;20341;-85
2021/07/25 07:10:11;;;;;;;9.97;9.07;;;23.80;99.90;;;;;;10359053;28;20198;-82
2021/07/25 07:15:16;;;;;;;10.30;9.20;;;24.10;99.90;;;;;;10357949;28;20225;-82
2021/07/25 07:20:18;;;;;;;10.40;9.57;;;24.40;99.90;;;;;;10362127;28;20261;-81
2021/07/25 07:25:21;;;;;;;10.57;9.37;;;24.50;99.90;;;;;;10358226;28;20233;-82
2021/07/25 07:30:25;;;;;;;8.73;8.03;;;24.40;99.90;;;;;;10376250;28;20213;-83
2021/07/25 07:35:27;;;;;;;8.60;7.80;;;24.30;99.90;;;;;;10374785;28;20594;-81
2021/07/25 07:40:29;;;;;;;8.50;7.70;;;24.30;99.90;;;;;;10355727;28;20217;-82
2021/07/25 07:45:34;;;;;;;9.20;7.87;;;24.30;99.90;;;;;;10374877;28;20215;-85
2021/07/25 07:50:36;;;;;;;8.57;7.87;;;24.30;99.90;;;;;;10353504;28;20215;-81
2021/07/25 07:55:38;;;;;;;7.97;7.27;;;24.20;99.90;;;;;;10341050;28;20231;-82
2021/07/25 08:00:42;;;;;;;10.83;9.00;;;24.20;99.90;;;;;;10358823;28;20199;-82
2021/07/25 08:05:45;;;;;;;10.50;9.63;;;24.30;99.90;;;;;;10389132;28;20219;-82
2021/07/25 08:10:47;;;;;;;8.10;7.40;;;24.30;99.90;;;;;;10379396;28;20198;-82
2021/07/25 08:15:50;;;;;;;8.03;7.43;;;24.50;99.90;;;;;;10381720;28;20251;-82
2021/07/25 08:20:53;;;;;;;10.23;8.50;;;24.70;99.90;;;;;;10367140;28;20217;-83
2021/07/25 08:25:55;;;;;;;10.30;9.40;;;25.10;99.90;;;;;;10383247;28;20257;-82
2021/07/25 08:30:59;;;;;;;10.30;7.60;;;25.10;99.90;;;;;;10397352;28;20216;-81
2021/07/25 08:36:02;;;;;;;8.17;7.57;;;24.90;99.90;;;;;;10387557;28;20225;-82
2021/07/25 08:41:12;;;;;;;8.70;7.93;;;24.60;99.90;;;;;;10359728;28;20202;-83
2021/07/25 08:46:18;;;;;;;9.03;8.23;;;24.40;99.90;;;;;;10347323;28;20725;-82
2021/07/25 08:51:21;;;;;;;8.33;7.53;;;24.30;99.90;;;;;;10382171;28;20618;-82
2021/07/25 08:56:27;;;;;;;9.63;7.10;;;24.20;99.90;;;;;;10341408;28;20222;-83
2021/07/25 09:01:35;;;;;;;8.20;7.50;;;24.00;99.90;;;;;;10351371;28;20202;-82
2021/07/25 09:07:09;;;;;;;8.00;7.30;;;23.90;99.90;;;;;;10366938;28;20226;-82
2021/07/25 09:12:16;;;;;;;8.60;7.90;;;23.80;99.90;;;;;;10387333;28;20214;-81
2021/07/25 09:17:20;;;;;;;8.30;7.57;;;23.70;99.90;;;;;;10362624;28;20230;-83
2021/07/25 09:22:23;;;;;;;8.57;7.87;;;23.70;99.90;;;;;;10373377;28;20281;-83
2021/07/25 09:27:33;;;;;;;8.27;7.60;;;23.80;99.90;;;;;;10348880;28;20656;-82
2021/07/25 09:32:37;;;;;;;7.50;6.90;;;24.00;99.90;;;;;;10360161;28;20206;-83
2021/07/25 09:37:42;;;;;;;7.87;7.27;;;24.20;99.90;;;;;;10377857;28;20280;-82
2021/07/25 09:42:45;;;;;;;8.33;7.63;;;24.20;99.90;;;;;;10362266;28;20215;-83
2021/07/25 09:47:49;;;;;;;9.70;8.37;;;24.00;99.90;;;;;;10348946;28;20226;-85
2021/07/25 09:53:00;;;;;;;9.33;8.50;;;23.80;99.90;;;;;;10364240;28;20230;-84
2021/07/25 09:58:05;;;;;;;10.97;9.03;;;23.50;99.90;;;;;;10349067;28;20227;-84
2021/07/25 10:03:24;;;;;;;9.63;8.83;;;23.10;99.90;;;;;;10350220;28;20233;-85
2021/07/25 10:08:26;;;;;;;9.60;8.80;;;22.90;99.90;;;;;;10368362;28;20233;-84
2021/07/25 10:13:30;;;;;;;8.37;7.60;;;22.80;99.90;;;;;;10384725;28;20198;-84
2021/07/25 10:18:35;;;;;;;9.20;8.40;;;22.70;99.90;;;;;;10367714;28;20326;-85
2021/07/25 10:23:43;;;;;;;7.70;7.10;;;22.50;99.90;;;;;;10349855;28;20229;-85
2021/07/25 10:28:47;;;;;;;6.97;6.40;;;22.30;99.90;;;;;;10348559;28;20897;-85
2021/07/25 10:33:52;;;;;;;8.93;7.97;;;22.20;99.90;;;;;;10358913;28;20202;-84
2021/07/25 10:38:54;;;;;;;9.93;8.10;;;22.00;99.90;;;;;;10364592;28;20214;-85
2021/07/25 10:44:01;;;;;;;8.83;8.03;;;21.90;99.90;;;;;;10384951;28;20268;-84
2021/07/25 10:49:15;;;;;;;8.87;7.97;;;21.70;99.90;;;;;;10350066;28;20245;-84
2021/07/25 10:54:31;;;;;;;10.63;9.73;;;21.60;99.90;;;;;;10379788;28;20230;-84
2021/07/25 10:59:44;;;;;;;11.17;10.13;;;21.50;99.90;;;;;;10350564;28;20226;-84
2021/07/25 11:05:08;;;;;;;9.90;9.20;;;21.40;99.90;;;;;;10369152;28;20195;-84
2021/07/25 11:10:12;;;;;;;9.50;8.80;;;21.40;99.90;;;;;;10400411;28;20206;-84
2021/07/25 11:15:30;;;;;;;9.70;8.90;;;21.40;99.90;;;;;;10346992;28;20758;-84
2021/07/25 11:20:44;;;;;;;9.00;8.40;;;21.40;99.90;;;;;;10332368;28;20226;-84
2021/07/25 11:25:47;;;;;;;8.97;8.27;;;21.50;99.90;;;;;;10357924;28;20226;-84
2021/07/25 11:31:08;;;;;;;10.03;9.33;;;21.60;99.90;;;;;;10340374;28;20297;-85
2021/07/25 11:36:13;;;;;;;9.43;8.70;;;21.90;99.90;;;;;;10349980;28;20230;-85
2021/07/25 11:41:20;;;;;;;9.30;8.40;;;22.20;99.90;;;;;;10338434;28;20434;-85
2021/07/25 11:46:31;;;;;;;9.13;8.43;;;22.50;99.90;;;;;;10339250;28;20227;-85
2021/07/25 11:51:35;;;;;;;8.33;7.63;;;22.80;99.90;;;;;;10338586;28;20265;-85
2021/07/25 11:56:37;;;;;;;8.90;8.00;;;22.90;99.90;;;;;;10355531;28;20236;-85
2021/07/25 12:01:39;;;;;;;9.80;9.00;;;22.90;99.90;;;;;;10339205;28;20612;-85
2021/07/25 12:06:43;;;;;;;8.60;8.00;;;23.10;99.90;;;;;;10338704;28;20288;-85
2021/07/25 12:11:46;;;;;;;8.73;8.03;;;23.20;99.90;;;;;;10338617;28;20651;-85
2021/07/25 12:16:50;;;;;;;8.53;7.77;;;23.20;99.90;;;;;;10337652;28;20218;-85
2021/07/25 12:22:07;;;;;;;9.00;8.20;;;23.20;99.90;;;;;;10338948;28;20632;-86
2021/07/25 12:27:31;;;;;;;8.30;7.70;;;23.10;99.90;;;;;;10357102;22;20296;-81
2021/07/25 12:32:34;;;;;;;7.77;7.17;;;22.90;99.90;;;;;;10364700;28;20233;-81
2021/07/25 12:37:43;;;;;;;8.83;8.13;;;22.70;99.90;;;;;;10335389;28;20289;-81
2021/07/25 12:42:48;;;;;;;9.00;8.17;;;22.40;99.90;;;;;;10366147;28;20230;-80
2021/07/25 12:48:08;;;;;;;9.00;8.17;;;22.30;99.90;;;;;;10363547;28;20249;-81
2021/07/25 12:53:29;;;;;;;8.27;7.37;;;22.20;99.90;;;;;;10344939;28;20201;-81
2021/07/25 12:58:32;;;;;;;8.53;7.83;;;22.20;99.90;;;;;;10355382;28;20321;-81
2021/07/25 13:03:48;;;;;;;8.10;7.40;;;22.10;99.90;;;;;;10363495;28;20261;-81
2021/07/25 13:08:53;;;;;;;8.83;8.10;;;22.20;99.90;;;;;;10331947;28;20218;-81
2021/07/25 13:13:58;;;;;;;8.63;7.83;;;22.40;99.90;;;;;;10362935;28;20289;-81
2021/07/25 13:19:01;;;;;;;7.63;6.97;;;22.80;99.90;;;;;;10370137;28;20222;-81
2021/07/25 13:24:05;;;;;;;9.30;8.50;;;23.10;99.90;;;;;;10379160;28;20199;-81
2021/07/25 13:29:07;;;;;;;7.97;7.37;;;23.50;99.90;;;;;;10358923;28;20238;-81
2021/07/25 13:34:09;;;;;;;9.37;8.37;;;23.70;99.90;;;;;;10359050;28;20305;-81
2021/07/25 13:39:12;;;;;;;7.90;7.30;;;23.80;99.90;;;;;;10355195;28;20227;-81
2021/07/25 13:44:15;;;;;;;8.93;8.33;;;23.80;99.90;;;;;;10371058;28;20230;-81
2021/07/25 13:49:17;;;;;;;8.80;8.00;;;23.90;99.90;;;;;;10361286;28;20481;-81
2021/07/25 13:54:20;;;;;;;9.10;8.30;;;24.00;99.90;;;;;;10371236;28;20670;-81
2021/07/25 13:59:22;;;;;;;10.07;8.80;;;24.00;99.90;;;;;;10371788;28;20218;-81
2021/07/25 14:04:25;;;;;;;8.53;7.63;;;24.20;99.90;;;;;;10365839;28;20706;-81
2021/07/25 14:09:29;;;;;;;10.03;8.53;;;24.30;99.90;;;;;;10339659;28;20636;-81
2021/07/25 14:14:32;;;;;;;8.23;7.57;;;24.40;99.90;;;;;;10342930;28;20227;-81
2021/07/25 14:19:34;;;;;;;8.83;7.70;;;24.40;99.90;;;;;;10337908;28;20231;-81
2021/07/25 14:24:37;;;;;;;8.77;7.97;;;24.50;99.90;;;;;;10344196;28;20219;-82
2021/07/25 14:29:39;;;;;;;9.00;8.30;;;24.60;99.90;;;;;;10327678;28;20227;-82
2021/07/25 14:34:41;;;;;;;8.87;8.07;;;24.70;99.90;;;;;;10344252;28;20581;-82
2021/07/25 14:39:45;;;;;;;8.30;7.60;;;24.80;99.90;;;;;;10329700;28;20223;-82
2021/07/25 14:44:47;;;;;;;8.10;7.50;;;24.80;99.90;;;;;;10345842;28;20274;-82
2021/07/25 14:49:49;;;;;;;8.67;7.87;;;24.80;99.90;;;;;;10356704;28;20297;-82
2021/07/25 14:54:55;;;;;;;7.43;6.83;;;24.80;99.90;;;;;;10345050;28;20196;-82
2021/07/25 14:59:57;;;;;;;8.23;7.53;;;24.70;99.90;;;;;;10337762;28;20238;-82
2021/07/25 15:04:59;;;;;;;7.50;7.00;;;24.80;99.90;;;;;;10338549;28;20222;-82
2021/07/25 15:10:03;;;;;;;7.10;6.40;;;24.90;99.90;;;;;;10339180;28;20219;-83
2021/07/25 15:15:09;;;;;;;6.27;5.80;;;25.00;99.90;;;;;;10342892;28;20203;-82
2021/07/25 15:20:12;;;;;;;5.60;5.20;;;24.90;99.90;;;;;;10337680;28;20237;-82
2021/07/25 15:25:17;;;;;;;6.33;4.80;;;25.10;99.90;;;;;;10348089;28;20256;-82
2021/07/25 15:30:19;;;;;;;7.03;4.60;;;25.20;99.90;;;;;;10346402;28;20261;-81
2021/07/25 15:35:21;;;;;;;6.77;4.30;;;25.00;99.90;;;;;;10324223;28;20697;-82
2021/07/25 15:40:25;;;;;;;4.07;3.83;;;24.70;99.90;;;;;;10352883;28;20686;-82
2021/07/25 15:45:27;;;;;;;4.50;4.10;;;24.40;99.90;;;;;;10337846;28;20195;-82
2021/07/25 15:50:29;;;;;;;4.83;4.43;;;24.20;99.90;;;;;;10331682;28;20195;-82
2021/07/25 15:55:36;;;;;;;4.20;3.80;;;24.10;99.90;;;;;;10332432;28;20581;-82
2021/07/25 16:00:39;;;;;;;5.17;4.47;;;23.90;99.90;;;;;;10329006;28;20219;-82
2021/07/25 16:05:42;;;;;;;3.53;3.33;;;23.80;99.90;;;;;;10327485;28;20226;-82
2021/07/25 16:10:47;;;;;;;4.30;4.00;;;23.60;99.90;;;;;;10368897;28;20191;-81
2021/07/25 16:15:49;;;;;;;4.03;3.63;;;23.50;99.90;;;;;;10330585;28;20215;-82
2021/07/25 16:20:52;;;;;;;4.73;4.13;;;23.50;99.90;;;;;;10364453;28;20285;-82
2021/07/25 16:25:55;;;;;;;3.63;3.40;;;23.40;99.90;;;;;;10370762;28;20229;-82
2021/07/25 16:30:58;;;;;;;4.13;3.83;;;23.40;99.90;;;;;;10370701;28;20194;-82
2021/07/25 16:36:00;;;;;;;4.17;3.80;;;23.40;99.90;;;;;;10343030;28;20683;-82
2021/07/25 16:41:06;;;;;;;4.70;4.30;;;23.40;99.90;;;;;;10329716;28;21030;-82
2021/07/25 16:46:09;;;;;;;5.63;4.53;;;23.50;99.90;;;;;;10369866;28;20242;-81
2021/07/25 16:51:11;;;;;;;3.60;3.40;;;23.60;99.90;;;;;;10369382;28;20281;-82
2021/07/25 16:56:15;;;;;;;7.23;3.83;;;23.70;99.90;;;;;;10354269;28;20777;-82
2021/07/25 17:01:17;;;;;;;4.10;3.80;;;23.80;99.90;;;;;;10382584;28;20289;-82
2021/07/25 17:06:19;;;;;;;5.33;4.83;;;23.70;99.90;;;;;;10382940;28;20317;-82
2021/07/25 17:11:23;;;;;;;4.40;4.03;;;23.60;99.90;;;;;;10356160;28;20210;-82
2021/07/25 17:16:26;;;;;;;4.10;3.83;;;23.50;99.90;;;;;;10356077;28;20222;-82
2021/07/25 17:21:28;;;;;;;5.03;4.63;;;23.30;99.90;;;;;;10323583;28;20234;-82
2021/07/25 17:26:32;;;;;;;4.23;4.00;;;23.20;99.90;;;;;;10375822;28;20615;-82
2021/07/25 17:31:34;;;;;;;4.37;4.07;;;23.20;99.90;;;;;;10373035;28;20222;-82
2021/07/25 17:36:37;;;;;;;4.43;3.97;;;23.20;99.90;;;;;;10378363;28;20317;-82
2021/07/25 17:41:40;;;;;;;4.53;4.23;;;23.20;99.90;;;;;;10361538;28;20211;-82
2021/07/25 17:46:43;;;;;;;4.37;4.07;;;23.20;99.90;;;;;;10365405;28;20230;-82
2021/07/25 17:51:45;;;;;;;3.80;3.60;;;23.20;99.90;;;;;;10370996;28;20297;-82
2021/07/25 17:56:49;;;;;;;5.80;5.30;;;23.10;99.90;;;;;;10371512;28;20230;-82
2021/07/25 18:01:51;;;;;;;5.00;4.60;;;23.00;99.90;;;;;;10371971;28;20213;-82
2021/07/25 18:06:53;;;;;;;5.20;4.90;;;23.00;99.90;;;;;;10394594;28;20229;-82
2021/07/25 18:11:57;;;;;;;9.50;4.80;;;22.90;99.90;;;;;;10367351;28;20294;-81
2021/07/25 18:17:00;;;;;;;6.60;4.97;;;22.70;99.90;;;;;;10358869;28;20229;-82
2021/07/25 18:22:07;;;;;;;5.07;4.60;;;22.50;99.90;;;;;;10342591;28;20199;-81
2021/07/25 18:27:11;;;;;;;4.60;4.20;;;22.40;99.90;;;;;;10365312;28;20246;-81
2021/07/25 18:32:13;;;;;;;4.70;4.40;;;22.30;99.90;;;;;;10360206;28;20213;-81
2021/07/25 18:37:15;;;;;;;4.87;4.47;;;22.10;99.90;;;;;;10372243;28;20265;-81
2021/07/25 18:42:19;;;;;;;4.77;4.37;;;22.10;99.90;;;;;;10369159;28;20705;-81
2021/07/25 18:47:21;;;;;;;4.93;4.50;;;21.90;99.90;;;;;;10373554;28;20254;-81
2021/07/25 18:52:23;;;;;;;5.27;4.77;;;21.80;99.90;;;;;;10383397;28;20206;-81
2021/07/25 18:57:26;;;;;;;4.90;4.40;;;21.70;99.90;;;;;;10371567;28;20232;-81
2021/07/25 19:02:28;;;;;;;5.27;4.97;;;21.70;99.90;;;;;;10372155;28;20203;-81
2021/07/25 19:07:30;;;;;;;4.23;3.83;;;21.60;99.90;;;;;;10361956;28;20278;-81
2021/07/25 19:12:34;;;;;;;6.43;5.27;;;21.50;99.90;;;;;;10366747;28;20254;-82
2021/07/25 19:17:37;;;;;;;7.67;5.33;;;21.50;99.90;;;;;;10343592;28;20745;-82
2021/07/25 19:22:39;;;;;;;5.27;4.87;;;21.40;99.90;;;;;;10341594;28;20285;-82
2021/07/25 19:27:42;;;;;;;4.93;4.53;;;21.30;99.90;;;;;;10370415;28;20251;-82
2021/07/25 19:32:44;;;;;;;8.07;7.47;;;21.20;99.90;;;;;;10376484;28;20209;-82
2021/07/25 19:37:47;;;;;;;5.33;4.90;;;21.10;99.90;;;;;;10372482;28;20955;-82
2021/07/25 19:42:52;;;;;;;5.40;4.53;;;21.10;99.90;;;;;;10382514;28;20269;-82
2021/07/25 19:47:57;;;;;;;5.63;5.00;;;21.10;99.90;;;;;;10362889;28;20762;-82
2021/07/25 19:52:59;;;;;;;5.40;4.67;;;21.00;99.90;;;;;;10385970;28;20230;-82
2021/07/25 19:58:03;;;;;;;6.10;5.50;;;20.90;99.90;;;;;;10382109;28;20769;-82
2021/07/25 20:03:06;;;;;;;5.50;5.03;;;20.80;99.90;;;;;;10340080;28;20216;-82
2021/07/25 20:42:18;;;;;;;5.80;5.30;;;20.90;99.90;;;;;;10254009;29;20287;-82
2021/07/25 20:55:44;;;;;;;7.47;4.93;;;21.00;99.90;;;;;;10210862;28;20208;-82
2021/07/25 21:14:38;;;;;;;5.50;5.10;;;21.00;99.90;;;;;;10389017;28;20254;-82
2021/07/25 21:20:43;;;;;;;5.63;5.23;;;21.00;99.90;;;;;;10282277;28;20255;-82
2021/07/25 22:14:15;;;;;;;5.87;5.47;;;21.00;99.90;;;;;;9763339;30;20226;-82
2021/07/25 23:20:43;;;;;;;5.83;5.33;;;20.80;99.90;;;;;;10441563;23;20268;-81
2021/07/25 23:40:20;;;;;;;8.20;5.80;;;20.60;99.90;;;;;;10250726;28;20234;-81
2021/07/25 23:52:18;;;;;;;6.17;5.57;;;20.50;99.90;;;;;;10420012;28;20201;-81
2021/07/25 23:57:36;;;;;;;7.07;5.93;;;20.40;99.90;;;;;;10416881;28;20233;-81
